Time;durP1;ratioP1;P1;durP2;ratioP2;P2;SDS_P1;SDS_P2;PMS_P1;PMS_P2;Temp;Humidity;BMP_temperature;BMP_pressure;BME280_temperature;BME280_humidity;BME280_pressure;Samples;Min_cycle;Max_cycle;Signal;HPM_P1;HPM_P2
2021/07/13 00:00:47;;;;;;;8.37;6.90;;;;;;;27.91;47.22;100051.41;3509575;28;20571;-79
2021/07/13 00:02:28;;;;;;;14.87;6.70;;;;;;;27.87;46.53;100047.63;3511056;28;20418;-82
2021/07/13 00:04:09;;;;;;;7.80;6.33;;;;;;;27.82;46.06;100046.59;3496272;28;20474;-80
2021/07/13 00:05:50;;;;;;;16.17;7.80;;;;;;;27.79;45.82;100049.91;3508321;28;20293;-76
2021/07/13 00:07:41;;;;;;;12.32;7.20;;;;;;;27.75;46.11;100042.59;3510245;28;20044;-81
2021/07/13 00:09:24;;;;;;;10.88;6.40;;;;;;;27.72;45.73;100051.41;3508797;28;20048;-78
2021/07/13 00:11:05;;;;;;;10.15;6.70;;;;;;;27.68;45.64;100037.53;3507687;28;20044;-78
2021/07/13 00:12:46;;;;;;;10.23;7.27;;;;;;;27.65;45.69;100046.34;3524808;28;20513;-79
2021/07/13 00:14:27;;;;;;;11.80;6.00;;;;;;;27.61;45.35;100043.38;3496505;28;20099;-80
2021/07/13 00:16:08;;;;;;;10.60;6.38;;;;;;;27.58;45.37;100035.75;3501406;28;20097;-78
2021/07/13 00:17:53;;;;;;;12.10;6.37;;;;;;;27.57;45.59;100033.31;3497139;28;20053;-79
2021/07/13 00:19:35;;;;;;;12.13;7.80;;;;;;;27.55;45.48;100032.81;3497529;28;20036;-76
2021/07/13 00:21:15;;;;;;;10.93;6.65;;;;;;;27.54;45.43;100033.91;3482222;28;20582;-78
2021/07/13 00:22:56;;;;;;;11.90;6.87;;;;;;;27.52;45.24;100033.41;3494331;28;20041;-79
2021/07/13 00:24:38;;;;;;;13.27;7.13;;;;;;;27.51;45.46;100031.78;3502970;28;20043;-78
2021/07/13 00:26:19;;;;;;;15.25;6.65;;;;;;;27.48;45.94;100032.38;3510760;28;20375;-79
2021/07/13 00:28:01;;;;;;;11.33;7.03;;;;;;;27.46;46.00;100026.38;3510276;28;20161;-76
2021/07/13 00:29:42;;;;;;;13.52;9.00;;;;;;;27.45;45.58;100025.56;3510144;28;20097;-76
2021/07/13 00:31:22;;;;;;;15.90;10.63;;;;;;;27.41;46.03;100033.56;3510297;28;20040;-76
2021/07/13 00:33:03;;;;;;;13.93;10.87;;;;;;;27.40;46.07;100037.41;3495631;28;20478;-79
2021/07/13 00:34:44;;;;;;;16.97;10.07;;;;;;;27.36;46.05;100028.19;3508160;28;20482;-76
2021/07/13 00:36:25;;;;;;;14.43;7.93;;;;;;;27.33;46.12;100039.72;3511198;28;20074;-79
2021/07/13 00:38:06;;;;;;;20.80;8.32;;;;;;;27.28;46.08;100034.31;3496856;28;20045;-78
2021/07/13 00:39:48;;;;;;;18.77;7.93;;;;;;;27.27;46.14;100037.38;3507080;28;20055;-78
2021/07/13 00:41:33;;;;;;;9.38;6.65;;;;;;;27.25;46.22;100037.66;3496211;28;20039;-79
2021/07/13 00:43:14;;;;;;;13.77;7.07;;;;;;;27.22;46.23;100040.19;3494631;28;20430;-78
2021/07/13 00:44:55;;;;;;;14.03;7.33;;;;;;;27.19;46.02;100038.84;3506959;28;20148;-78
2021/07/13 00:46:46;;;;;;;12.38;7.35;;;;;;;27.17;46.46;100038.31;3506456;28;20036;-76
2021/07/13 00:48:26;;;;;;;11.35;7.40;;;;;;;27.02;45.95;100030.31;3511250;28;20040;-78
2021/07/13 00:50:08;;;;;;;13.53;7.57;;;;;;;27.09;46.12;100042.53;3512477;28;20133;-79
2021/07/13 00:51:49;;;;;;;10.88;6.90;;;;;;;27.07;46.17;100035.72;3497765;28;20072;-78
2021/07/13 00:53:30;;;;;;;10.67;7.20;;;;;;;27.03;46.11;100035.50;3510211;28;20145;-77
2021/07/13 00:55:12;;;;;;;12.50;7.43;;;;;;;27.04;46.27;100036.31;3498015;28;20044;-77
2021/07/13 00:56:55;;;;;;;14.45;7.45;;;;;;;26.99;46.45;100028.97;3508009;28;20101;-79
2021/07/13 00:58:35;;;;;;;10.10;6.22;;;;;;;26.99;46.65;100039.94;3489835;28;20503;-78
2021/07/13 01:00:19;;;;;;;11.73;6.87;;;;;;;26.95;46.71;100033.41;3492629;28;20191;-76
2021/07/13 01:01:59;;;;;;;17.08;6.90;;;;;;;26.94;46.88;100032.59;3507711;28;20063;-78
2021/07/13 01:03:40;;;;;;;9.73;6.33;;;;;;;26.91;46.77;100033.19;3510555;28;20036;-77
2021/07/13 01:05:25;;;;;;;11.77;7.82;;;;;;;26.90;46.46;100037.06;3509894;28;20506;-77
2021/07/13 01:07:28;;;;;;;11.25;6.72;;;;;;;26.90;46.64;100042.53;3510849;28;20058;-77
2021/07/13 01:09:14;;;;;;;11.60;6.95;;;;;;;26.85;46.77;100041.75;3495086;28;20086;-77
2021/07/13 01:11:07;;;;;;;11.77;6.68;;;;;;;26.80;47.10;100045.41;3507904;28;20567;-75
2021/07/13 01:13:13;;;;;;;13.07;7.50;;;;;;;26.80;46.66;100047.28;3502564;28;20044;-77
2021/07/13 01:14:57;;;;;;;11.70;6.50;;;;;;;26.74;46.84;100038.34;3495111;28;20074;-78
2021/07/13 01:16:50;;;;;;;15.35;7.65;;;;;;;26.71;46.88;100039.75;3495086;28;20108;-78
2021/07/13 01:18:35;;;;;;;14.27;6.95;;;;;;;26.67;47.08;100044.19;3508710;28;20097;-80
2021/07/13 01:20:34;;;;;;;15.23;8.10;;;;;;;26.66;47.41;100044.47;3480916;28;20059;-80
2021/07/13 01:22:17;;;;;;;11.48;7.13;;;;;;;26.62;47.03;100046.19;3506309;28;20056;-78
2021/07/13 01:24:15;;;;;;;12.88;7.10;;;;;;;26.63;47.01;100042.34;3510667;28;20040;-78
2021/07/13 01:26:05;;;;;;;14.32;7.50;;;;;;;26.60;47.36;100042.91;3506194;28;20043;-80
2021/07/13 01:27:48;;;;;;;10.63;6.65;;;;;;;26.57;47.40;100041.59;3510541;28;20036;-80
2021/07/13 01:29:30;;;;;;;17.00;7.85;;;;;;;26.57;47.17;100054.44;3509921;28;20520;-79
2021/07/13 01:31:16;;;;;;;20.13;8.18;;;;;;;26.54;47.31;100048.44;3494020;28;20039;-81
2021/07/13 01:33:10;;;;;;;20.30;8.02;;;;;;;26.53;47.39;100048.72;3508564;28;20387;-82
2021/07/13 01:34:59;;;;;;;16.45;7.65;;;;;;;26.52;47.63;100047.91;3504130;28;20047;-80
2021/07/13 01:36:44;;;;;;;17.40;6.70;;;;;;;26.49;47.41;100037.53;3494980;28;20056;-80
2021/07/13 01:38:26;;;;;;;14.38;7.57;;;;;;;26.50;47.59;100049.28;3493055;28;20032;-78
2021/07/13 01:40:08;;;;;;;15.15;6.45;;;;;;;26.49;47.82;100043.00;3489226;28;20522;-78
2021/07/13 01:41:50;;;;;;;;;;;;;;;26.50;47.54;100047.38;3508078;28;20422;-77
2021/07/13 01:43:39;;;;;;;13.10;6.38;;;;;;;26.45;47.74;100047.41;3495265;28;19920;-78
2021/07/13 01:45:20;;;;;;;11.75;6.78;;;;;;;26.44;47.81;100040.34;3496193;28;20050;-77
2021/07/13 01:47:01;;;;;;;11.53;7.10;;;;;;;26.43;47.63;100040.63;3497727;28;20032;-77
2021/07/13 01:48:43;;;;;;;15.80;7.10;;;;;;;26.43;47.92;100044.16;3496572;28;20036;-77
2021/07/13 01:50:24;;;;;;;11.77;7.05;;;;;;;26.43;48.07;100046.09;3495745;28;20111;-80
2021/07/13 01:52:05;;;;;;;12.52;7.20;;;;;;;26.42;47.82;100041.75;3478767;28;20103;-78
2021/07/13 01:53:47;;;;;;;16.65;7.93;;;;;;;26.41;48.50;100040.94;3489267;28;20047;-77
2021/07/13 01:55:31;;;;;;;14.80;7.40;;;;;;;26.42;48.29;100041.75;3492131;28;20127;-79
2021/07/13 01:57:12;;;;;;;11.82;7.03;;;;;;;26.41;48.66;100040.94;3492215;28;20125;-80
2021/07/13 01:58:53;;;;;;;17.50;8.25;;;;;;;26.41;48.24;100040.94;3492162;28;20072;-78
2021/07/13 02:00:35;;;;;;;12.70;6.78;;;;;;;26.39;48.78;100043.13;3495263;28;20415;-79
2021/07/13 02:02:17;;;;;;;9.85;6.80;;;;;;;26.37;48.68;100034.41;3495012;28;20388;-81
2021/07/13 02:03:58;;;;;;;;;;;;;;;26.41;48.45;100046.41;3493514;28;20032;-79
2021/07/13 02:05:39;;;;;;;11.82;7.35;;;;;;;26.36;48.19;100054.66;3492452;28;20011;-81
2021/07/13 02:07:21;;;;;;;10.73;6.32;;;;;;;26.34;48.51;100045.94;3492234;28;20033;-76
2021/07/13 02:09:04;;;;;;;;;;;;;;;26.38;48.18;100048.88;3492611;28;20036;-77
2021/07/13 02:10:45;;;;;;;10.25;5.65;;;;;;;26.35;48.08;100044.00;3494787;28;20057;-77
2021/07/13 02:12:25;;;;;;;10.03;6.03;;;;;;;26.32;48.01;100045.41;3494296;28;20036;-78
2021/07/13 02:14:06;;;;;;;16.23;7.03;;;;;;;26.30;47.92;100039.41;3492296;28;20423;-78
2021/07/13 02:15:47;;;;;;;12.47;6.63;;;;;;;26.30;47.66;100047.59;3495136;28;20051;-77
2021/07/13 02:17:31;;;;;;;7.70;5.03;;;;;;;26.32;47.53;100039.94;3495495;28;20024;-78
2021/07/13 02:19:12;;;;;;;10.63;6.57;;;;;;;26.32;47.09;100037.19;3495667;28;20076;-77
2021/07/13 02:20:54;;;;;;;11.40;6.35;;;;;;;26.34;46.91;100040.47;3491675;28;20036;-78
2021/07/13 02:22:35;;;;;;;13.52;5.90;;;;;;;26.35;47.26;100042.06;3494703;28;20041;-76
2021/07/13 02:24:16;;;;;;;10.55;5.90;;;;;;;26.36;47.23;100046.44;3472613;28;20037;-76
2021/07/13 02:26:03;;;;;;;10.18;5.90;;;;;;;26.37;47.15;100045.34;3492334;28;20042;-78
2021/07/13 02:28:03;;;;;;;8.80;5.78;;;;;;;26.41;47.04;100046.41;3495420;28;20048;-78
2021/07/13 02:29:50;;;;;;;10.13;5.57;;;;;;;26.40;46.52;100044.75;3494528;28;20047;-78
2021/07/13 02:31:36;;;;;;;14.98;5.60;;;;;;;26.42;46.59;100042.53;3494266;28;20040;-79
2021/07/13 02:33:28;;;;;;;13.70;6.25;;;;;;;26.43;46.52;100052.34;3497556;28;20102;-80
2021/07/13 02:35:11;;;;;;;10.73;5.80;;;;;;;26.45;46.54;100043.88;3497842;28;20047;-79
2021/07/13 02:36:52;;;;;;;9.45;5.55;;;;;;;26.47;46.57;100047.94;3484031;28;20048;-80
2021/07/13 02:38:34;;;;;;;10.15;5.43;;;;;;;26.49;46.58;100047.66;3492472;28;20032;-79
2021/07/13 02:40:16;;;;;;;;;;;;;;;26.51;46.44;100043.53;3467718;28;20119;-78
2021/07/13 02:41:59;;;;;;;8.35;5.60;;;;;;;26.51;45.80;100040.81;3490476;28;20271;-79
2021/07/13 02:43:40;;;;;;;10.00;5.47;;;;;;;26.52;45.63;100047.13;3497087;28;20036;-78
2021/07/13 02:45:22;;;;;;;7.93;5.03;;;;;;;26.51;46.05;100046.28;3497685;28;20036;-80
2021/07/13 02:47:13;;;;;;;11.63;5.13;;;;;;;26.56;46.05;100050.06;3497846;28;20518;-82
2021/07/13 02:48:55;;;;;;;8.77;6.10;;;;;;;26.56;46.14;100047.34;3492107;28;20048;-81
2021/07/13 02:50:36;;;;;;;7.13;5.00;;;;;;;26.57;45.73;100043.50;3498087;28;20040;-82
2021/07/13 02:52:20;;;;;;;9.02;5.20;;;;;;;26.58;46.01;100040.47;3497434;28;20083;-81
2021/07/13 02:54:01;;;;;;;10.70;4.40;;;;;;;26.61;45.81;100044.53;3495639;28;20050;-79
2021/07/13 02:55:44;;;;;;;12.85;5.78;;;;;;;26.62;45.78;100046.19;3479146;28;20065;-80
2021/07/13 02:57:26;;;;;;;13.98;5.22;;;;;;;26.63;45.85;100042.34;3491007;28;20032;-80
2021/07/13 02:59:07;;;;;;;;;;;;;;;26.69;46.24;100043.88;3479125;28;20041;-80
2021/07/13 03:00:49;;;;;;;10.85;5.18;;;;;;;26.69;45.96;100046.63;3491759;28;21165;-79
2021/07/13 03:02:30;;;;;;;12.75;5.15;;;;;;;26.69;45.58;100041.97;3498313;28;20040;-81
2021/07/13 03:04:11;;;;;;;12.43;5.63;;;;;;;26.71;45.89;100044.41;3483643;28;20049;-80
2021/07/13 03:05:52;;;;;;;11.37;5.67;;;;;;;26.73;45.40;100042.19;3492014;28;20495;-80
2021/07/13 03:07:33;;;;;;;;;;;;;;;26.78;45.36;100044.88;3494158;28;20047;-77
2021/07/13 03:09:14;;;;;;;12.15;5.53;;;;;;;26.78;45.25;100044.88;3499031;28;19912;-78
2021/07/13 03:10:56;;;;;;;13.27;5.47;;;;;;;26.81;45.28;100048.94;3497072;28;20044;-78
2021/07/13 03:12:37;;;;;;;5.95;5.20;;;;;;;26.81;45.28;100044.28;3497883;28;20029;-80
2021/07/13 03:14:18;;;;;;;16.53;5.93;;;;;;;26.85;45.41;100041.75;3495687;28;20043;-82
2021/07/13 03:15:58;;;;;;;7.55;5.38;;;;;;;26.87;45.28;100051.28;3495243;28;20707;-80
2021/07/13 03:17:40;;;;;;;10.87;5.13;;;;;;;26.91;44.95;100043.34;3497233;28;20097;-78
2021/07/13 03:19:20;;;;;;;8.82;5.30;;;;;;;26.93;44.90;100055.59;3496851;28;20043;-78
2021/07/13 03:21:03;;;;;;;11.87;4.83;;;;;;;26.96;44.71;100052.28;3498593;28;20407;-81
2021/07/13 03:22:46;;;;;;;8.00;5.07;;;;;;;27.00;44.81;100054.41;3489671;28;20044;-80
2021/07/13 03:24:27;;;;;;;10.20;4.45;;;;;;;27.03;44.60;100056.56;3495115;28;20051;-81
2021/07/13 03:26:09;;;;;;;13.20;4.72;;;;;;;27.05;44.51;100049.69;3496125;28;20071;-79
2021/07/13 03:27:50;;;;;;;9.38;5.40;;;;;;;27.08;44.74;100054.59;3498938;28;20477;-81
2021/07/13 03:29:31;;;;;;;15.30;5.78;;;;;;;27.12;44.24;100046.59;3495317;28;20495;-80
2021/07/13 03:31:12;;;;;;;12.80;5.53;;;;;;;27.13;43.93;100050.94;3496615;28;20104;-78
2021/07/13 03:32:54;;;;;;;16.15;5.75;;;;;;;27.16;44.20;100047.63;3497602;28;20483;-79
2021/07/13 03:34:35;;;;;;;10.48;4.95;;;;;;;27.18;43.73;100042.69;3482845;28;20037;-79
2021/07/13 03:36:17;;;;;;;;;;;;;;;27.24;43.75;100057.94;3495211;28;20563;-78
2021/07/13 03:37:58;;;;;;;10.95;4.85;;;;;;;27.23;43.56;100053.56;3496161;28;20371;-79
2021/07/13 03:39:39;;;;;;;5.80;3.85;;;;;;;27.24;43.53;100052.47;3494303;28;20040;-81
2021/07/13 03:41:21;;;;;;;12.40;5.95;;;;;;;27.27;43.32;100051.88;3493620;28;20036;-76
2021/07/13 03:43:02;;;;;;;15.23;4.53;;;;;;;27.30;43.39;100055.94;3497144;28;20047;-75
2021/07/13 03:44:43;;;;;;;11.25;5.07;;;;;;;27.35;43.36;100058.59;3506139;28;20048;-79
2021/07/13 03:46:24;;;;;;;7.50;4.87;;;;;;;27.37;43.09;100062.66;3496187;28;20095;-78
2021/07/13 03:48:05;;;;;;;13.80;5.50;;;;;;;27.40;43.18;100062.06;3493962;28;20460;-78
2021/07/13 03:49:48;;;;;;;10.27;5.00;;;;;;;27.43;43.00;100062.59;3503491;28;20293;-80
2021/07/13 03:51:42;;;;;;;7.22;5.03;;;;;;;27.46;43.09;100051.03;3510715;28;20537;-77
2021/07/13 03:53:23;;;;;;;6.50;4.30;;;;;;;27.50;42.92;100055.63;3511012;28;20039;-78
2021/07/13 03:55:04;;;;;;;8.70;4.63;;;;;;;27.55;43.03;100060.19;3510970;28;20044;-79
2021/07/13 03:56:46;;;;;;;8.00;4.90;;;;;;;27.59;42.49;100058.47;3503418;28;20810;-77
2021/07/13 03:58:26;;;;;;;10.82;5.22;;;;;;;27.64;42.43;100055.66;3496599;28;20491;-77
2021/07/13 04:00:14;;;;;;;10.77;4.77;;;;;;;27.68;42.70;100056.69;3507298;28;20039;-81
2021/07/13 04:01:55;;;;;;;8.55;4.43;;;;;;;27.68;42.54;100050.41;3510982;28;20047;-78
2021/07/13 04:03:36;;;;;;;13.20;4.93;;;;;;;27.69;42.84;100052.81;3511678;28;20040;-79
2021/07/13 04:05:17;;;;;;;10.97;5.47;;;;;;;27.73;42.48;100053.88;3496554;28;20036;-79
2021/07/13 04:06:57;;;;;;;11.15;5.28;;;;;;;27.76;42.50;100053.25;3508402;28;20173;-77
2021/07/13 04:08:38;;;;;;;10.83;4.70;;;;;;;27.80;42.57;100057.03;3511244;28;20580;-74
2021/07/13 04:10:19;;;;;;;13.45;4.88;;;;;;;27.82;42.00;100052.06;3488872;28;20048;-75
2021/07/13 04:12:00;;;;;;;4.97;4.13;;;;;;;27.85;42.03;100053.41;3504471;28;20036;-73
2021/07/13 04:13:40;;;;;;;14.23;4.47;;;;;;;27.90;41.88;100056.06;3510668;28;20469;-74
2021/07/13 04:15:21;;;;;;;9.57;5.73;;;;;;;27.94;41.93;100059.84;3510405;28;20048;-74
2021/07/13 04:17:03;;;;;;;10.65;4.28;;;;;;;27.98;42.01;100054.53;3510622;28;20036;-74
2021/07/13 04:18:43;;;;;;;11.13;4.70;;;;;;;28.02;41.95;100058.31;3510554;28;20474;-75
2021/07/13 04:20:25;;;;;;;6.43;4.33;;;;;;;28.05;41.86;100049.50;3510368;28;20040;-74
2021/07/13 04:22:06;;;;;;;10.57;4.55;;;;;;;28.07;41.99;100047.28;3510462;28;20506;-74
2021/07/13 04:23:47;;;;;;;7.88;4.75;;;;;;;28.09;42.03;100044.22;3510031;28;20038;-73
2021/07/13 04:25:28;;;;;;;6.53;4.27;;;;;;;28.12;41.61;100044.44;3510271;28;20166;-73
2021/07/13 04:27:09;;;;;;;11.87;5.13;;;;;;;28.12;41.64;100041.69;3510373;28;20063;-72
2021/07/13 04:28:49;;;;;;;8.13;5.07;;;;;;;28.16;42.22;100050.09;3510010;28;20038;-74
2021/07/13 04:30:30;;;;;;;10.30;4.77;;;;;;;28.19;42.40;100055.81;3510134;28;20032;-73
2021/07/13 04:32:11;;;;;;;11.17;4.70;;;;;;;28.23;42.42;100048.59;3510341;28;20051;-73
2021/07/13 04:33:51;;;;;;;21.17;6.30;;;;;;;28.28;43.09;100051.25;3510844;28;20085;-74
2021/07/13 04:35:32;;;;;;;19.37;4.60;;;;;;;28.35;42.50;100050.03;3509489;28;20036;-73
2021/07/13 04:37:13;;;;;;;16.03;5.17;;;;;;;28.38;42.51;100046.69;3510371;28;20489;-73
2021/07/13 04:38:53;;;;;;;11.53;5.33;;;;;;;28.43;42.32;100043.84;3507307;28;20039;-74
2021/07/13 04:40:34;;;;;;;17.97;5.70;;;;;;;28.46;42.86;100043.25;3510410;28;20127;-75
2021/07/13 04:42:16;;;;;;;18.25;6.35;;;;;;;28.51;42.54;100039.59;3510360;28;20036;-73
2021/07/13 04:43:57;;;;;;;11.67;5.40;;;;;;;28.54;42.81;100049.94;3510644;28;20055;-73
2021/07/13 04:45:38;;;;;;;12.23;5.47;;;;;;;28.57;43.03;100046.59;3510199;28;20032;-73
2021/07/13 04:47:18;;;;;;;14.23;5.60;;;;;;;28.60;43.05;100044.03;3502566;28;20131;-73
2021/07/13 04:48:59;;;;;;;6.57;5.00;;;;;;;28.64;42.85;100042.31;3510233;28;20122;-74
2021/07/13 04:50:40;;;;;;;9.77;5.17;;;;;;;28.70;42.88;100048.50;3510483;28;20047;-74
2021/07/13 04:52:20;;;;;;;10.07;5.53;;;;;;;28.74;42.81;100041.28;3502273;28;20036;-74
2021/07/13 04:54:01;;;;;;;13.87;5.20;;;;;;;28.76;42.50;100036.31;3510081;28;20075;-75
2021/07/13 04:55:42;;;;;;;8.73;5.20;;;;;;;28.78;42.08;100036.00;3510320;28;20097;-75
2021/07/13 04:57:23;;;;;;;7.43;5.00;;;;;;;28.82;42.70;100034.28;3510152;28;20404;-75
2021/07/13 04:59:04;;;;;;;11.25;5.03;;;;;;;28.87;43.03;100031.41;3509815;28;20035;-74
2021/07/13 05:00:45;;;;;;;8.17;5.47;;;;;;;28.91;42.81;100037.91;3505734;28;20059;-75
2021/07/13 05:02:25;;;;;;;21.50;5.60;;;;;;;28.96;42.35;100037.78;3510328;28;20035;-74
2021/07/13 05:04:06;;;;;;;9.50;5.27;;;;;;;28.98;42.41;100032.81;3510024;28;20032;-75
2021/07/13 05:05:47;;;;;;;10.67;5.33;;;;;;;29.01;42.40;100026.69;3510589;28;20043;-73
2021/07/13 05:07:27;;;;;;;11.43;5.13;;;;;;;29.06;42.32;100032.09;3510056;28;20509;-78
2021/07/13 05:09:08;;;;;;;12.37;5.07;;;;;;;29.08;42.11;100031.78;3495604;28;20037;-82
2021/07/13 05:10:51;;;;;;;15.47;5.50;;;;;;;29.09;42.00;100026.00;3491630;28;20433;-76
2021/07/13 05:12:32;;;;;;;10.55;5.32;;;;;;;29.14;42.17;100025.84;3505973;28;20044;-77
2021/07/13 05:14:13;;;;;;;14.93;5.43;;;;;;;29.17;42.67;100010.69;3509856;28;20547;-76
2021/07/13 05:15:54;;;;;;;8.40;5.07;;;;;;;29.28;42.54;100025.81;3494839;28;20139;-78
2021/07/13 05:17:36;;;;;;;9.23;5.93;;;;;;;29.37;42.75;100022.34;3491934;28;20033;-75
2021/07/13 05:19:17;;;;;;;15.35;5.75;;;;;;;29.43;42.71;100032.06;3506418;28;20040;-77
2021/07/13 05:21:00;;;;;;;13.85;5.45;;;;;;;29.48;42.64;100030.03;3510038;28;20036;-75
2021/07/13 05:22:42;;;;;;;11.02;5.60;;;;;;;29.52;42.77;100028.25;3508226;28;20065;-76
2021/07/13 05:24:25;;;;;;;14.90;5.70;;;;;;;29.58;43.06;100028.94;3508913;28;20036;-73
2021/07/13 05:26:07;;;;;;;9.60;5.38;;;;;;;29.66;43.18;100024.66;3509068;28;20039;-77
2021/07/13 05:27:47;;;;;;;10.63;4.87;;;;;;;29.69;43.12;100030.34;3509700;28;20563;-84
2021/07/13 05:29:29;;;;;;;12.13;4.43;;;;;;;29.75;41.96;100033.75;3482293;28;20107;-80
2021/07/13 05:31:12;;;;;;;5.15;4.25;;;;;;;29.81;41.00;100032.50;3475540;28;20124;-81
2021/07/13 05:32:53;;;;;;;6.07;4.60;;;;;;;29.85;40.48;100025.25;3497473;28;20041;-79
2021/07/13 05:34:34;;;;;;;12.68;4.88;;;;;;;29.89;40.54;100023.47;3514870;28;20040;-78
2021/07/13 05:36:15;;;;;;;7.35;5.40;;;;;;;29.98;40.36;100032.59;3497754;28;20093;-80
2021/07/13 05:37:56;;;;;;;11.40;5.17;;;;;;;30.05;39.79;100034.06;3509608;28;20038;-79
2021/07/13 05:39:37;;;;;;;14.17;5.47;;;;;;;30.12;39.52;100031.69;3515011;28;20040;-82
2021/07/13 05:41:20;;;;;;;12.52;5.47;;;;;;;30.20;39.48;100033.66;3496243;28;20043;-79
2021/07/13 05:43:01;;;;;;;8.73;5.05;;;;;;;30.26;39.35;100032.44;3492786;28;20051;-80
2021/07/13 05:44:41;;;;;;;8.15;4.97;;;;;;;30.31;39.19;100035.03;3495164;28;20506;-79
2021/07/13 05:46:22;;;;;;;9.38;5.35;;;;;;;30.37;39.17;100033.75;3478685;28;20041;-75
2021/07/13 05:48:03;;;;;;;6.87;5.17;;;;;;;30.46;39.00;100032.97;3505149;28;20055;-77
2021/07/13 05:49:45;;;;;;;10.02;5.20;;;;;;;30.53;38.79;100030.56;3495589;28;20348;-77
2021/07/13 05:51:25;;;;;;;8.15;4.85;;;;;;;30.59;38.72;100030.09;3507034;28;20036;-77
2021/07/13 05:53:06;;;;;;;11.63;5.87;;;;;;;30.65;38.76;100033.50;3495103;28;20585;-77
2021/07/13 05:54:47;;;;;;;9.20;5.60;;;;;;;30.72;38.89;100033.84;3491585;28;20438;-77
2021/07/13 05:56:27;;;;;;;9.97;5.40;;;;;;;30.82;38.71;100038.25;3506344;28;20388;-76
2021/07/13 05:58:08;;;;;;;12.10;4.90;;;;;;;30.88;38.51;100030.63;3508990;28;20147;-76
2021/07/13 05:59:49;;;;;;;13.47;5.70;;;;;;;30.96;38.08;100029.84;3509790;28;20513;-77
2021/07/13 06:01:29;;;;;;;10.40;4.43;;;;;;;31.00;37.88;100028.06;3508415;28;20084;-76
2021/07/13 06:03:10;;;;;;;11.40;5.17;;;;;;;31.03;37.42;100022.72;3509319;28;20044;-76
2021/07/13 06:04:55;;;;;;;7.53;4.50;;;;;;;31.10;37.33;100026.94;3509555;28;20131;-76
2021/07/13 06:06:35;;;;;;;6.43;4.40;;;;;;;31.14;37.09;100027.91;3496958;28;20582;-77
2021/07/13 06:08:16;;;;;;;7.05;4.82;;;;;;;31.17;37.32;100024.50;3509690;28;21405;-76
2021/07/13 06:09:57;;;;;;;7.00;4.37;;;;;;;31.20;36.85;100026.63;3512790;28;20156;-78
2021/07/13 06:11:38;;;;;;;17.70;5.78;;;;;;;31.21;36.88;100023.53;3511798;28;20409;-75
2021/07/13 06:13:19;;;;;;;5.33;4.63;;;;;;;31.25;36.89;100026.44;3511107;28;20044;-76
2021/07/13 06:14:59;;;;;;;7.75;5.03;;;;;;;31.28;36.73;100029.34;3512030;28;20290;-76
2021/07/13 06:16:40;;;;;;;11.17;5.10;;;;;;;31.32;36.79;100025.97;3511702;28;20040;-77
2021/07/13 06:18:21;;;;;;;9.33;4.57;;;;;;;31.37;36.38;100023.03;3497158;28;20576;-76
2021/07/13 06:20:04;;;;;;;8.73;3.92;;;;;;;31.44;36.18;100018.69;3508426;28;20158;-76
2021/07/13 06:21:45;;;;;;;7.35;4.40;;;;;;;31.51;35.81;100020.94;3495487;28;20101;-75
2021/07/13 06:23:26;;;;;;;9.05;4.60;;;;;;;31.59;35.68;100017.34;3508816;28;20471;-77
2021/07/13 06:25:07;;;;;;;14.27;4.17;;;;;;;31.70;35.84;100021.41;3512026;28;20051;-76
2021/07/13 06:26:48;;;;;;;12.50;4.40;;;;;;;31.79;35.26;100018.59;3496666;28;20291;-77
2021/07/13 06:28:29;;;;;;;17.10;5.00;;;;;;;31.89;35.25;100018.25;3494200;28;20074;-76
2021/07/13 06:30:10;;;;;;;9.00;6.00;;;;;;;32.01;35.13;100020.34;3508397;28;20196;-77
2021/07/13 06:31:51;;;;;;;8.48;4.68;;;;;;;32.15;34.92;100026.44;3511080;28;20044;-77
2021/07/13 06:33:32;;;;;;;9.15;6.30;;;;;;;32.28;34.63;100016.31;3511800;28;20039;-77
2021/07/13 06:35:13;;;;;;;14.82;7.55;;;;;;;32.41;34.25;100013.66;3512001;28;20051;-77
2021/07/13 06:36:54;;;;;;;17.20;6.65;;;;;;;32.58;34.19;100030.97;3496702;28;20091;-77
2021/07/13 06:38:35;;;;;;;9.47;5.13;;;;;;;32.73;34.33;100020.47;3508869;28;20414;-77
2021/07/13 06:40:16;;;;;;;7.40;4.93;;;;;;;32.90;33.81;100025.88;3513375;28;20491;-75
2021/07/13 06:41:57;;;;;;;12.15;5.15;;;;;;;33.06;33.37;100020.56;3509333;28;20032;-77
2021/07/13 06:43:38;;;;;;;6.80;4.70;;;;;;;33.22;33.10;100026.28;3508683;28;20740;-79
2021/07/13 06:45:19;;;;;;;13.10;5.38;;;;;;;33.36;33.18;100031.53;3495314;28;20040;-77
2021/07/13 06:47:00;;;;;;;9.38;4.32;;;;;;;33.47;32.41;100035.50;3508726;28;20118;-79
2021/07/13 06:48:42;;;;;;;9.50;3.85;;;;;;;33.57;32.38;100026.00;3511188;28;20048;-77
2021/07/13 06:50:24;;;;;;;13.98;4.40;;;;;;;33.66;32.47;100030.28;3509749;28;20047;-79
2021/07/13 06:52:06;;;;;;;9.40;4.55;;;;;;;33.79;32.16;100027.53;3510181;28;20481;-78
2021/07/13 06:53:48;;;;;;;5.32;3.88;;;;;;;33.93;32.18;100018.94;3493689;28;20098;-75
2021/07/13 06:55:30;;;;;;;10.10;3.85;;;;;;;34.05;32.22;100030.81;3507512;28;20075;-75
2021/07/13 06:57:11;;;;;;;6.80;4.45;;;;;;;34.19;31.81;100026.94;3494723;28;20036;-75
2021/07/13 06:58:52;;;;;;;13.65;5.05;;;;;;;34.30;31.20;100031.66;3507239;28;20039;-75
2021/07/13 07:00:37;;;;;;;6.35;4.43;;;;;;;34.42;31.62;100030.06;3503685;28;20043;-75
2021/07/13 07:02:18;;;;;;;8.15;4.05;;;;;;;34.51;31.16;100027.94;3510422;28;20040;-78
2021/07/13 07:03:59;;;;;;;14.25;4.10;;;;;;;34.60;31.09;100019.56;3495004;28;20195;-77
2021/07/13 07:05:41;;;;;;;8.88;5.53;;;;;;;34.67;30.68;100014.22;3506823;28;20422;-77
2021/07/13 07:07:23;;;;;;;4.88;4.45;;;;;;;34.76;30.29;100014.09;3492533;28;20072;-79
2021/07/13 07:09:04;;;;;;;8.85;4.97;;;;;;;34.86;30.83;100016.41;3508602;28;20067;-78
2021/07/13 07:10:45;;;;;;;8.95;6.40;;;;;;;34.95;30.86;100017.84;3496047;28;20403;-77
2021/07/13 07:12:25;;;;;;;11.90;5.68;;;;;;;35.04;30.41;100017.72;3509142;28;20502;-78
2021/07/13 07:14:06;;;;;;;6.97;4.65;;;;;;;35.12;30.26;100022.34;3511655;28;20036;-77
2021/07/13 07:15:47;;;;;;;5.85;4.90;;;;;;;35.20;30.19;100019.78;3496452;28;20119;-77
2021/07/13 07:17:28;;;;;;;8.60;4.60;;;;;;;35.32;30.38;100022.50;3508858;28;20043;-77
2021/07/13 07:19:10;;;;;;;10.57;4.82;;;;;;;35.42;29.76;100019.22;3512880;28;20039;-78
2021/07/13 07:20:54;;;;;;;7.70;4.45;;;;;;;35.53;29.79;100013.97;3508683;28;20066;-76
2021/07/13 07:22:35;;;;;;;13.02;5.28;;;;;;;35.67;30.13;100019.09;3512315;28;20850;-76
2021/07/13 07:24:16;;;;;;;5.95;4.07;;;;;;;35.80;30.08;100023.41;3507948;28;20051;-77
2021/07/13 07:25:57;;;;;;;10.40;4.55;;;;;;;35.92;29.77;100019.75;3510806;28;20510;-77
2021/07/13 07:27:38;;;;;;;6.43;4.50;;;;;;;35.97;29.23;100017.50;3510797;28;20127;-84
2021/07/13 07:29:19;;;;;;;10.65;4.88;;;;;;;36.02;28.67;100020.03;3506846;28;20135;-78
2021/07/13 07:31:00;;;;;;;10.32;5.28;;;;;;;36.07;28.82;100015.38;3508500;28;20032;-79
2021/07/13 07:32:41;;;;;;;5.30;4.55;;;;;;;36.11;28.76;100017.09;3509796;28;20048;-80
2021/07/13 07:34:22;;;;;;;6.50;4.47;;;;;;;36.15;28.59;100023.53;3510278;28;20054;-78
2021/07/13 07:36:03;;;;;;;7.00;4.00;;;;;;;36.12;28.72;100018.72;3484943;28;20040;-79
2021/07/13 07:37:44;;;;;;;;;;;;;;;36.20;28.84;100020.50;3500752;28;20055;-77
2021/07/13 07:39:25;;;;;;;7.17;4.40;;;;;;;36.22;28.65;100012.63;3504795;28;19920;-81
2021/07/13 07:41:06;;;;;;;6.13;4.35;;;;;;;36.30;28.76;100013.59;3494635;28;20146;-76
2021/07/13 07:42:52;;;;;;;7.28;4.55;;;;;;;36.43;28.31;100012.31;3505732;28;20483;-82
2021/07/13 07:44:34;;;;;;;5.43;4.18;;;;;;;36.56;28.21;100012.22;3464463;28;20053;-79
2021/07/13 07:46:14;;;;;;;;;;;;;;;36.70;28.53;100009.75;3470026;28;20413;-81
2021/07/13 07:47:56;;;;;;;14.30;5.37;;;;;;;36.83;28.13;100008.44;3483940;28;21457;-77
2021/07/13 07:49:37;;;;;;;9.00;5.22;;;;;;;36.92;27.85;100007.41;3500597;28;20500;-82
2021/07/13 07:51:17;;;;;;;14.20;5.55;;;;;;;37.00;27.93;100011.97;3504434;28;20039;-80
2021/07/13 07:52:58;;;;;;;10.63;4.57;;;;;;;37.10;27.77;100009.44;3490215;28;20040;-76